sensor_id;sensor_type;location;lat;lon;timestamp;P1;durP1;ratioP1;P2;durP2;ratioP2
7759;SDS011;3924;48.830;9.262;2023-06-04T00:02:17;2.30;;;2.10;;
7759;SDS011;3924;48.830;9.262;2023-06-04T00:04:44;1.97;;;1.80;;
7759;SDS011;3924;48.830;9.262;2023-06-04T00:07:11;3.03;;;2.23;;
7759;SDS011;3924;48.830;9.262;2023-06-04T00:09:39;6.90;;;2.47;;
7759;SDS011;3924;48.830;9.262;2023-06-04T00:12:07;2.00;;;1.90;;
7759;SDS011;3924;48.830;9.262;2023-06-04T00:14:34;2.90;;;2.27;;
7759;SDS011;3924;48.830;9.262;2023-06-04T00:17:01;3.00;;;2.07;;
7759;SDS011;3924;48.830;9.262;2023-06-04T00:19:28;2.40;;;2.20;;
7759;SDS011;3924;48.830;9.262;2023-06-04T00:21:54;2.60;;;2.23;;
7759;SDS011;3924;48.830;9.262;2023-06-04T00:24:22;2.27;;;2.00;;
7759;SDS011;3924;48.830;9.262;2023-06-04T00:26:49;3.93;;;1.90;;
7759;SDS011;3924;48.830;9.262;2023-06-04T00:29:15;2.83;;;2.30;;
7759;SDS011;3924;48.830;9.262;2023-06-04T00:31:42;2.13;;;1.67;;
7759;SDS011;3924;48.830;9.262;2023-06-04T00:34:09;2.30;;;2.10;;
7759;SDS011;3924;48.830;9.262;2023-06-04T00:36:39;2.43;;;2.20;;
7759;SDS011;3924;48.830;9.262;2023-06-04T00:39:07;1.63;;;1.53;;
7759;SDS011;3924;48.830;9.262;2023-06-04T00:41:34;4.13;;;2.40;;
7759;SDS011;3924;48.830;9.262;2023-06-04T00:44:01;5.20;;;2.10;;
7759;SDS011;3924;48.830;9.262;2023-06-04T00:46:28;1.93;;;1.77;;
7759;SDS011;3924;48.830;9.262;2023-06-04T00:48:57;2.57;;;2.23;;
7759;SDS011;3924;48.830;9.262;2023-06-04T00:51:24;2.37;;;2.13;;
7759;SDS011;3924;48.830;9.262;2023-06-04T00:53:52;2.50;;;2.30;;
7759;SDS011;3924;48.830;9.262;2023-06-04T00:56:19;4.20;;;2.30;;
7759;SDS011;3924;48.830;9.262;2023-06-04T00:58:45;3.73;;;2.33;;
7759;SDS011;3924;48.830;9.262;2023-06-04T01:03:52;2.27;;;2.07;;
7759;SDS011;3924;48.830;9.262;2023-06-04T01:06:25;3.80;;;2.17;;
7759;SDS011;3924;48.830;9.262;2023-06-04T01:08:58;2.93;;;2.50;;
7759;SDS011;3924;48.830;9.262;2023-06-04T01:11:30;4.50;;;2.43;;
7759;SDS011;3924;48.830;9.262;2023-06-04T01:14:01;2.60;;;2.33;;
7759;SDS011;3924;48.830;9.262;2023-06-04T01:16:30;3.30;;;2.53;;
7759;SDS011;3924;48.830;9.262;2023-06-04T01:19:02;3.60;;;2.50;;
7759;SDS011;3924;48.830;9.262;2023-06-04T01:21:39;5.53;;;2.57;;
7759;SDS011;3924;48.830;9.262;2023-06-04T01:24:06;4.93;;;2.63;;
7759;SDS011;3924;48.830;9.262;2023-06-04T01:26:34;3.80;;;2.23;;
7759;SDS011;3924;48.830;9.262;2023-06-04T01:29:01;2.83;;;2.20;;
7759;SDS011;3924;48.830;9.262;2023-06-04T01:31:28;3.60;;;2.10;;
7759;SDS011;3924;48.830;9.262;2023-06-04T01:33:59;3.30;;;2.50;;
7759;SDS011;3924;48.830;9.262;2023-06-04T01:36:26;3.97;;;2.60;;
7759;SDS011;3924;48.830;9.262;2023-06-04T01:38:53;2.03;;;1.93;;
7759;SDS011;3924;48.830;9.262;2023-06-04T01:41:21;4.30;;;2.53;;
7759;SDS011;3924;48.830;9.262;2023-06-04T01:43:48;3.47;;;2.50;;
7759;SDS011;3924;48.830;9.262;2023-06-04T01:46:15;3.30;;;2.43;;
7759;SDS011;3924;48.830;9.262;2023-06-04T01:48:42;2.43;;;2.23;;
7759;SDS011;3924;48.830;9.262;2023-06-04T01:51:09;2.60;;;2.40;;
7759;SDS011;3924;48.830;9.262;2023-06-04T01:53:37;3.57;;;3.00;;
7759;SDS011;3924;48.830;9.262;2023-06-04T01:56:04;2.90;;;2.40;;
7759;SDS011;3924;48.830;9.262;2023-06-04T01:58:31;1.90;;;1.80;;
7759;SDS011;3924;48.830;9.262;2023-06-04T02:00:58;2.50;;;2.10;;
7759;SDS011;3924;48.830;9.262;2023-06-04T02:03:26;4.10;;;2.30;;
7759;SDS011;3924;48.830;9.262;2023-06-04T02:05:54;2.10;;;1.90;;
7759;SDS011;3924;48.830;9.262;2023-06-04T02:08:20;5.03;;;2.30;;
7759;SDS011;3924;48.830;9.262;2023-06-04T02:10:47;2.63;;;2.40;;
7759;SDS011;3924;48.830;9.262;2023-06-04T02:13:15;2.50;;;2.30;;
7759;SDS011;3924;48.830;9.262;2023-06-04T02:15:42;2.93;;;2.30;;
7759;SDS011;3924;48.830;9.262;2023-06-04T02:20:44;2.13;;;1.93;;
7759;SDS011;3924;48.830;9.262;2023-06-04T02:23:12;3.63;;;2.40;;
7759;SDS011;3924;48.830;9.262;2023-06-04T02:25:39;2.20;;;2.00;;
7759;SDS011;3924;48.830;9.262;2023-06-04T02:28:06;2.87;;;2.20;;
7759;SDS011;3924;48.830;9.262;2023-06-04T02:30:34;2.17;;;1.97;;
7759;SDS011;3924;48.830;9.262;2023-06-04T02:33:01;2.27;;;1.67;;
7759;SDS011;3924;48.830;9.262;2023-06-04T02:35:27;1.40;;;1.30;;
7759;SDS011;3924;48.830;9.262;2023-06-04T02:37:54;2.07;;;1.70;;
7759;SDS011;3924;48.830;9.262;2023-06-04T02:40:25;2.80;;;1.70;;
7759;SDS011;3924;48.830;9.262;2023-06-04T02:42:52;2.03;;;1.83;;
7759;SDS011;3924;48.830;9.262;2023-06-04T02:45:19;1.50;;;1.40;;
7759;SDS011;3924;48.830;9.262;2023-06-04T02:47:47;1.97;;;1.77;;
7759;SDS011;3924;48.830;9.262;2023-06-04T02:50:14;4.40;;;1.80;;
7759;SDS011;3924;48.830;9.262;2023-06-04T02:52:44;1.53;;;1.43;;
7759;SDS011;3924;48.830;9.262;2023-06-04T02:55:11;1.60;;;1.40;;
7759;SDS011;3924;48.830;9.262;2023-06-04T02:57:41;1.70;;;1.60;;
7759;SDS011;3924;48.830;9.262;2023-06-04T03:00:11;3.43;;;1.97;;
7759;SDS011;3924;48.830;9.262;2023-06-04T03:02:44;2.57;;;2.37;;
7759;SDS011;3924;48.830;9.262;2023-06-04T03:05:13;2.30;;;1.40;;
7759;SDS011;3924;48.830;9.262;2023-06-04T03:07:41;2.33;;;2.13;;
7759;SDS011;3924;48.830;9.262;2023-06-04T03:10:10;1.83;;;1.70;;
7759;SDS011;3924;48.830;9.262;2023-06-04T03:12:38;4.27;;;1.30;;
7759;SDS011;3924;48.830;9.262;2023-06-04T03:15:05;4.97;;;2.17;;
7759;SDS011;3924;48.830;9.262;2023-06-04T03:17:33;2.47;;;1.67;;
7759;SDS011;3924;48.830;9.262;2023-06-04T03:20:00;3.47;;;1.83;;
7759;SDS011;3924;48.830;9.262;2023-06-04T03:22:27;1.73;;;1.40;;
7759;SDS011;3924;48.830;9.262;2023-06-04T03:24:54;1.40;;;1.30;;
7759;SDS011;3924;48.830;9.262;2023-06-04T03:27:21;2.73;;;1.43;;
7759;SDS011;3924;48.830;9.262;2023-06-04T03:29:48;1.60;;;1.50;;
7759;SDS011;3924;48.830;9.262;2023-06-04T03:32:15;2.07;;;1.23;;
7759;SDS011;3924;48.830;9.262;2023-06-04T03:34:42;1.33;;;1.23;;
7759;SDS011;3924;48.830;9.262;2023-06-04T03:37:09;2.80;;;1.50;;
7759;SDS011;3924;48.830;9.262;2023-06-04T03:39:37;2.20;;;1.47;;
7759;SDS011;3924;48.830;9.262;2023-06-04T03:42:04;1.80;;;1.37;;
7759;SDS011;3924;48.830;9.262;2023-06-04T03:44:31;3.70;;;1.43;;
7759;SDS011;3924;48.830;9.262;2023-06-04T03:46:58;1.33;;;1.20;;
7759;SDS011;3924;48.830;9.262;2023-06-04T03:49:25;1.63;;;1.53;;
7759;SDS011;3924;48.830;9.262;2023-06-04T03:51:51;1.17;;;1.17;;
7759;SDS011;3924;48.830;9.262;2023-06-04T03:54:18;1.63;;;1.47;;
7759;SDS011;3924;48.830;9.262;2023-06-04T03:56:45;1.23;;;1.23;;
7759;SDS011;3924;48.830;9.262;2023-06-04T03:59:12;1.00;;;1.00;;
7759;SDS011;3924;48.830;9.262;2023-06-04T04:01:39;2.00;;;1.40;;
7759;SDS011;3924;48.830;9.262;2023-06-04T04:04:06;2.53;;;1.40;;
7759;SDS011;3924;48.830;9.262;2023-06-04T04:06:33;1.80;;;1.40;;
7759;SDS011;3924;48.830;9.262;2023-06-04T04:09:00;1.37;;;1.13;;
7759;SDS011;3924;48.830;9.262;2023-06-04T04:11:27;2.67;;;1.77;;
7759;SDS011;3924;48.830;9.262;2023-06-04T04:13:53;1.87;;;1.13;;
7759;SDS011;3924;48.830;9.262;2023-06-04T04:16:20;1.03;;;1.03;;
7759;SDS011;3924;48.830;9.262;2023-06-04T04:18:46;2.70;;;1.50;;
7759;SDS011;3924;48.830;9.262;2023-06-04T04:21:13;1.37;;;1.17;;
7759;SDS011;3924;48.830;9.262;2023-06-04T04:23:40;2.00;;;1.70;;
7759;SDS011;3924;48.830;9.262;2023-06-04T04:26:07;1.33;;;1.23;;
7759;SDS011;3924;48.830;9.262;2023-06-04T04:28:36;1.00;;;1.00;;
7759;SDS011;3924;48.830;9.262;2023-06-04T04:31:04;1.43;;;1.17;;
7759;SDS011;3924;48.830;9.262;2023-06-04T04:33:33;2.00;;;1.40;;
7759;SDS011;3924;48.830;9.262;2023-06-04T04:36:03;1.93;;;1.30;;
7759;SDS011;3924;48.830;9.262;2023-06-04T04:38:29;1.07;;;0.97;;
7759;SDS011;3924;48.830;9.262;2023-06-04T04:41:02;1.60;;;1.33;;
7759;SDS011;3924;48.830;9.262;2023-06-04T04:43:32;1.23;;;1.07;;
7759;SDS011;3924;48.830;9.262;2023-06-04T04:46:04;3.13;;;1.33;;
7759;SDS011;3924;48.830;9.262;2023-06-04T04:48:33;2.20;;;1.53;;
7759;SDS011;3924;48.830;9.262;2023-06-04T04:51:00;1.17;;;1.17;;
7759;SDS011;3924;48.830;9.262;2023-06-04T04:53:28;1.00;;;1.00;;
7759;SDS011;3924;48.830;9.262;2023-06-04T04:55:56;1.77;;;1.37;;
7759;SDS011;3924;48.830;9.262;2023-06-04T04:58:23;1.50;;;1.40;;
7759;SDS011;3924;48.830;9.262;2023-06-04T05:00:50;1.47;;;1.17;;
7759;SDS011;3924;48.830;9.262;2023-06-04T05:03:16;1.10;;;1.10;;
7759;SDS011;3924;48.830;9.262;2023-06-04T05:05:43;1.13;;;1.07;;
7759;SDS011;3924;48.830;9.262;2023-06-04T05:08:10;1.00;;;1.00;;
7759;SDS011;3924;48.830;9.262;2023-06-04T05:10:37;1.53;;;1.43;;
7759;SDS011;3924;48.830;9.262;2023-06-04T05:13:04;1.40;;;1.30;;
7759;SDS011;3924;48.830;9.262;2023-06-04T05:15:32;1.60;;;1.40;;
7759;SDS011;3924;48.830;9.262;2023-06-04T05:18:02;2.33;;;1.20;;
7759;SDS011;3924;48.830;9.262;2023-06-04T05:20:30;1.67;;;1.30;;
7759;SDS011;3924;48.830;9.262;2023-06-04T05:22:57;1.60;;;1.47;;
7759;SDS011;3924;48.830;9.262;2023-06-04T05:25:25;2.77;;;1.60;;
7759;SDS011;3924;48.830;9.262;2023-06-04T05:27:57;1.97;;;1.70;;
7759;SDS011;3924;48.830;9.262;2023-06-04T05:30:24;1.37;;;1.33;;
7759;SDS011;3924;48.830;9.262;2023-06-04T05:32:51;2.57;;;1.50;;
7759;SDS011;3924;48.830;9.262;2023-06-04T05:35:21;1.43;;;1.40;;
7759;SDS011;3924;48.830;9.262;2023-06-04T05:37:48;2.10;;;1.77;;
7759;SDS011;3924;48.830;9.262;2023-06-04T05:40:20;1.73;;;1.63;;
7759;SDS011;3924;48.830;9.262;2023-06-04T05:42:48;1.37;;;1.27;;
7759;SDS011;3924;48.830;9.262;2023-06-04T05:45:15;1.30;;;1.20;;
7759;SDS011;3924;48.830;9.262;2023-06-04T05:47:42;1.40;;;1.30;;
7759;SDS011;3924;48.830;9.262;2023-06-04T05:50:09;2.00;;;1.13;;
7759;SDS011;3924;48.830;9.262;2023-06-04T05:52:36;2.57;;;1.20;;
7759;SDS011;3924;48.830;9.262;2023-06-04T05:55:04;1.50;;;1.03;;
7759;SDS011;3924;48.830;9.262;2023-06-04T05:57:34;0.90;;;0.90;;
7759;SDS011;3924;48.830;9.262;2023-06-04T06:00:01;2.33;;;1.30;;
7759;SDS011;3924;48.830;9.262;2023-06-04T06:02:29;1.00;;;1.00;;
7759;SDS011;3924;48.830;9.262;2023-06-04T06:04:59;1.20;;;1.10;;
7759;SDS011;3924;48.830;9.262;2023-06-04T06:07:25;0.90;;;0.90;;
7759;SDS011;3924;48.830;9.262;2023-06-04T06:09:52;0.87;;;0.80;;
7759;SDS011;3924;48.830;9.262;2023-06-04T06:12:20;2.70;;;1.00;;
7759;SDS011;3924;48.830;9.262;2023-06-04T06:14:46;1.57;;;1.07;;
7759;SDS011;3924;48.830;9.262;2023-06-04T06:17:14;1.20;;;0.80;;
7759;SDS011;3924;48.830;9.262;2023-06-04T06:19:41;1.63;;;1.20;;
7759;SDS011;3924;48.830;9.262;2023-06-04T06:22:08;1.30;;;1.20;;
7759;SDS011;3924;48.830;9.262;2023-06-04T06:24:34;1.87;;;1.07;;
7759;SDS011;3924;48.830;9.262;2023-06-04T06:27:01;1.17;;;1.10;;
7759;SDS011;3924;48.830;9.262;2023-06-04T06:29:28;4.33;;;1.00;;
7759;SDS011;3924;48.830;9.262;2023-06-04T06:31:54;2.90;;;1.37;;
7759;SDS011;3924;48.830;9.262;2023-06-04T06:34:21;0.97;;;0.93;;
7759;SDS011;3924;48.830;9.262;2023-06-04T06:36:50;1.30;;;1.20;;
7759;SDS011;3924;48.830;9.262;2023-06-04T06:39:16;2.30;;;1.10;;
7759;SDS011;3924;48.830;9.262;2023-06-04T06:41:43;1.37;;;1.30;;
7759;SDS011;3924;48.830;9.262;2023-06-04T06:44:11;1.73;;;1.10;;
7759;SDS011;3924;48.830;9.262;2023-06-04T06:46:37;1.53;;;1.43;;
7759;SDS011;3924;48.830;9.262;2023-06-04T06:49:04;0.97;;;0.97;;
7759;SDS011;3924;48.830;9.262;2023-06-04T06:51:31;10.80;;;1.47;;
7759;SDS011;3924;48.830;9.262;2023-06-04T06:53:58;2.47;;;1.07;;
7759;SDS011;3924;48.830;9.262;2023-06-04T06:56:25;2.80;;;1.17;;
7759;SDS011;3924;48.830;9.262;2023-06-04T06:58:52;1.60;;;1.50;;
7759;SDS011;3924;48.830;9.262;2023-06-04T07:01:21;1.60;;;1.50;;
7759;SDS011;3924;48.830;9.262;2023-06-04T07:03:48;3.90;;;1.73;;
7759;SDS011;3924;48.830;9.262;2023-06-04T07:06:15;1.47;;;0.90;;
7759;SDS011;3924;48.830;9.262;2023-06-04T07:08:43;1.80;;;1.23;;
7759;SDS011;3924;48.830;9.262;2023-06-04T07:11:10;1.17;;;1.07;;
7759;SDS011;3924;48.830;9.262;2023-06-04T07:13:39;1.37;;;1.30;;
7759;SDS011;3924;48.830;9.262;2023-06-04T07:16:06;2.50;;;1.17;;
7759;SDS011;3924;48.830;9.262;2023-06-04T07:18:33;1.20;;;1.10;;
7759;SDS011;3924;48.830;9.262;2023-06-04T07:20:59;1.57;;;1.20;;
7759;SDS011;3924;48.830;9.262;2023-06-04T07:23:27;1.07;;;1.03;;
7759;SDS011;3924;48.830;9.262;2023-06-04T07:25:54;1.27;;;0.77;;
7759;SDS011;3924;48.830;9.262;2023-06-04T07:28:22;1.10;;;1.03;;
7759;SDS011;3924;48.830;9.262;2023-06-04T07:30:50;1.03;;;1.00;;
7759;SDS011;3924;48.830;9.262;2023-06-04T07:33:17;2.70;;;0.80;;
7759;SDS011;3924;48.830;9.262;2023-06-04T07:35:43;3.40;;;1.20;;
7759;SDS011;3924;48.830;9.262;2023-06-04T07:38:11;1.17;;;1.00;;
7759;SDS011;3924;48.830;9.262;2023-06-04T07:40:38;1.10;;;1.03;;
7759;SDS011;3924;48.830;9.262;2023-06-04T07:43:05;3.30;;;1.50;;
7759;SDS011;3924;48.830;9.262;2023-06-04T07:45:31;1.53;;;1.00;;
7759;SDS011;3924;48.830;9.262;2023-06-04T07:48:01;1.23;;;1.23;;
7759;SDS011;3924;48.830;9.262;2023-06-04T07:50:28;1.87;;;0.90;;
7759;SDS011;3924;48.830;9.262;2023-06-04T07:52:54;1.33;;;1.23;;
7759;SDS011;3924;48.830;9.262;2023-06-04T07:55:21;1.10;;;1.10;;
7759;SDS011;3924;48.830;9.262;2023-06-04T07:57:48;1.27;;;1.17;;
7759;SDS011;3924;48.830;9.262;2023-06-04T08:00:15;1.00;;;0.97;;
7759;SDS011;3924;48.830;9.262;2023-06-04T08:02:44;2.07;;;1.23;;
7759;SDS011;3924;48.830;9.262;2023-06-04T08:05:11;1.30;;;1.20;;
7759;SDS011;3924;48.830;9.262;2023-06-04T08:07:40;1.00;;;1.00;;
7759;SDS011;3924;48.830;9.262;2023-06-04T08:10:07;2.33;;;1.00;;
7759;SDS011;3924;48.830;9.262;2023-06-04T08:12:37;1.30;;;1.20;;
7759;SDS011;3924;48.830;9.262;2023-06-04T08:15:04;2.87;;;1.20;;
7759;SDS011;3924;48.830;9.262;2023-06-04T08:17:32;1.13;;;1.00;;
7759;SDS011;3924;48.830;9.262;2023-06-04T08:19:59;0.97;;;0.97;;
7759;SDS011;3924;48.830;9.262;2023-06-04T08:22:28;1.30;;;1.03;;
7759;SDS011;3924;48.830;9.262;2023-06-04T08:24:55;2.47;;;1.03;;
7759;SDS011;3924;48.830;9.262;2023-06-04T08:27:22;0.97;;;0.83;;
7759;SDS011;3924;48.830;9.262;2023-06-04T08:29:51;2.47;;;1.50;;
7759;SDS011;3924;48.830;9.262;2023-06-04T08:32:18;1.07;;;1.03;;
7759;SDS011;3924;48.830;9.262;2023-06-04T08:34:45;1.80;;;1.30;;
7759;SDS011;3924;48.830;9.262;2023-06-04T08:37:11;2.23;;;1.40;;
7759;SDS011;3924;48.830;9.262;2023-06-04T08:39:38;1.47;;;0.90;;
7759;SDS011;3924;48.830;9.262;2023-06-04T08:42:05;1.57;;;0.90;;
7759;SDS011;3924;48.830;9.262;2023-06-04T08:44:36;0.80;;;0.80;;
7759;SDS011;3924;48.830;9.262;2023-06-04T08:47:03;6.10;;;1.20;;
7759;SDS011;3924;48.830;9.262;2023-06-04T08:49:37;1.10;;;1.10;;
7759;SDS011;3924;48.830;9.262;2023-06-04T08:52:07;0.90;;;0.90;;
7759;SDS011;3924;48.830;9.262;2023-06-04T08:54:33;2.93;;;1.30;;
7759;SDS011;3924;48.830;9.262;2023-06-04T08:57:01;2.10;;;1.10;;
7759;SDS011;3924;48.830;9.262;2023-06-04T08:59:28;1.17;;;1.17;;
7759;SDS011;3924;48.830;9.262;2023-06-04T09:01:56;1.93;;;1.83;;
7759;SDS011;3924;48.830;9.262;2023-06-04T09:04:23;1.50;;;1.30;;
7759;SDS011;3924;48.830;9.262;2023-06-04T09:06:51;0.90;;;0.90;;
7759;SDS011;3924;48.830;9.262;2023-06-04T09:09:19;1.97;;;0.77;;
7759;SDS011;3924;48.830;9.262;2023-06-04T09:11:51;1.03;;;1.00;;
7759;SDS011;3924;48.830;9.262;2023-06-04T09:14:19;2.47;;;1.47;;
7759;SDS011;3924;48.830;9.262;2023-06-04T09:16:47;2.33;;;0.93;;
7759;SDS011;3924;48.830;9.262;2023-06-04T09:19:20;1.53;;;1.07;;
7759;SDS011;3924;48.830;9.262;2023-06-04T09:24:21;2.30;;;0.90;;
7759;SDS011;3924;48.830;9.262;2023-06-04T09:26:50;3.27;;;0.97;;
7759;SDS011;3924;48.830;9.262;2023-06-04T09:29:17;0.90;;;0.90;;
7759;SDS011;3924;48.830;9.262;2023-06-04T09:31:45;0.70;;;0.70;;
7759;SDS011;3924;48.830;9.262;2023-06-04T09:34:13;1.60;;;1.20;;
7759;SDS011;3924;48.830;9.262;2023-06-04T09:36:43;1.30;;;1.23;;
7759;SDS011;3924;48.830;9.262;2023-06-04T09:39:16;2.30;;;1.27;;
7759;SDS011;3924;48.830;9.262;2023-06-04T09:41:43;2.17;;;1.40;;
7759;SDS011;3924;48.830;9.262;2023-06-04T09:44:10;0.80;;;0.80;;
7759;SDS011;3924;48.830;9.262;2023-06-04T09:46:38;1.07;;;1.00;;
7759;SDS011;3924;48.830;9.262;2023-06-04T09:49:06;0.80;;;0.80;;
7759;SDS011;3924;48.830;9.262;2023-06-04T09:51:33;1.37;;;1.10;;
7759;SDS011;3924;48.830;9.262;2023-06-04T09:54:00;1.10;;;1.00;;
7759;SDS011;3924;48.830;9.262;2023-06-04T09:56:28;9.70;;;1.20;;
7759;SDS011;3924;48.830;9.262;2023-06-04T09:58:56;1.17;;;1.07;;
7759;SDS011;3924;48.830;9.262;2023-06-04T10:01:27;1.63;;;1.47;;
7759;SDS011;3924;48.830;9.262;2023-06-04T10:03:57;1.03;;;1.00;;
7759;SDS011;3924;48.830;9.262;2023-06-04T10:06:32;1.40;;;1.30;;
7759;SDS011;3924;48.830;9.262;2023-06-04T10:09:01;1.30;;;1.20;;
7759;SDS011;3924;48.830;9.262;2023-06-04T10:11:37;3.63;;;1.47;;
7759;SDS011;3924;48.830;9.262;2023-06-04T10:14:19;3.43;;;1.10;;
7759;SDS011;3924;48.830;9.262;2023-06-04T10:16:49;1.33;;;1.13;;
7759;SDS011;3924;48.830;9.262;2023-06-04T10:19:17;1.43;;;1.23;;
7759;SDS011;3924;48.830;9.262;2023-06-04T10:21:45;1.40;;;1.30;;
7759;SDS011;3924;48.830;9.262;2023-06-04T10:24:15;3.83;;;1.77;;
7759;SDS011;3924;48.830;9.262;2023-06-04T10:26:43;1.03;;;1.00;;
7759;SDS011;3924;48.830;9.262;2023-06-04T10:29:12;3.53;;;1.10;;
7759;SDS011;3924;48.830;9.262;2023-06-04T10:31:40;1.77;;;1.43;;
7759;SDS011;3924;48.830;9.262;2023-06-04T10:34:08;1.13;;;1.03;;
7759;SDS011;3924;48.830;9.262;2023-06-04T10:36:42;1.30;;;1.20;;
7759;SDS011;3924;48.830;9.262;2023-06-04T10:39:11;1.53;;;1.20;;
7759;SDS011;3924;48.830;9.262;2023-06-04T10:41:39;2.23;;;1.63;;
7759;SDS011;3924;48.830;9.262;2023-06-04T10:44:06;1.43;;;1.30;;
7759;SDS011;3924;48.830;9.262;2023-06-04T10:46:39;1.50;;;1.40;;
7759;SDS011;3924;48.830;9.262;2023-06-04T10:49:09;4.33;;;1.13;;
7759;SDS011;3924;48.830;9.262;2023-06-04T10:51:37;1.50;;;1.37;;
7759;SDS011;3924;48.830;9.262;2023-06-04T10:54:04;1.40;;;1.20;;
7759;SDS011;3924;48.830;9.262;2023-06-04T10:56:32;1.87;;;1.33;;
7759;SDS011;3924;48.830;9.262;2023-06-04T10:59:13;1.30;;;1.20;;
7759;SDS011;3924;48.830;9.262;2023-06-04T11:01:41;2.07;;;1.33;;
7759;SDS011;3924;48.830;9.262;2023-06-04T11:04:25;1.37;;;1.27;;
7759;SDS011;3924;48.830;9.262;2023-06-04T11:07:02;2.17;;;1.37;;
7759;SDS011;3924;48.830;9.262;2023-06-04T11:09:36;2.60;;;1.37;;
7759;SDS011;3924;48.830;9.262;2023-06-04T11:12:23;2.97;;;1.50;;
7759;SDS011;3924;48.830;9.262;2023-06-04T11:14:56;1.60;;;1.50;;
7759;SDS011;3924;48.830;9.262;2023-06-04T11:17:26;0.90;;;0.90;;
7759;SDS011;3924;48.830;9.262;2023-06-04T11:19:56;1.70;;;1.10;;
7759;SDS011;3924;48.830;9.262;2023-06-04T11:22:23;3.30;;;1.27;;
7759;SDS011;3924;48.830;9.262;2023-06-04T11:24:58;1.10;;;1.10;;
7759;SDS011;3924;48.830;9.262;2023-06-04T11:27:28;1.73;;;1.63;;
7759;SDS011;3924;48.830;9.262;2023-06-04T11:30:02;1.10;;;1.10;;
7759;SDS011;3924;48.830;9.262;2023-06-04T11:32:29;6.40;;;1.53;;
7759;SDS011;3924;48.830;9.262;2023-06-04T11:35:04;4.33;;;1.47;;
7759;SDS011;3924;48.830;9.262;2023-06-04T11:37:33;4.70;;;1.67;;
7759;SDS011;3924;48.830;9.262;2023-06-04T11:40:02;2.13;;;1.70;;
7759;SDS011;3924;48.830;9.262;2023-06-04T11:42:34;1.17;;;0.97;;
7759;SDS011;3924;48.830;9.262;2023-06-04T11:45:12;0.90;;;0.90;;
7759;SDS011;3924;48.830;9.262;2023-06-04T11:47:44;1.63;;;1.53;;
7759;SDS011;3924;48.830;9.262;2023-06-04T11:50:11;1.27;;;1.17;;
7759;SDS011;3924;48.830;9.262;2023-06-04T11:52:38;2.03;;;1.63;;
7759;SDS011;3924;48.830;9.262;2023-06-04T11:55:10;3.10;;;1.30;;
7759;SDS011;3924;48.830;9.262;2023-06-04T11:57:39;1.23;;;1.13;;
7759;SDS011;3924;48.830;9.262;2023-06-04T12:00:09;1.87;;;1.47;;
7759;SDS011;3924;48.830;9.262;2023-06-04T12:02:36;1.77;;;1.33;;
7759;SDS011;3924;48.830;9.262;2023-06-04T12:05:13;1.03;;;1.00;;
7759;SDS011;3924;48.830;9.262;2023-06-04T12:07:41;1.30;;;1.20;;
7759;SDS011;3924;48.830;9.262;2023-06-04T12:10:08;1.37;;;1.27;;
7759;SDS011;3924;48.830;9.262;2023-06-04T12:12:35;1.57;;;1.40;;
7759;SDS011;3924;48.830;9.262;2023-06-04T12:15:01;2.60;;;1.50;;
7759;SDS011;3924;48.830;9.262;2023-06-04T12:17:30;3.50;;;1.33;;
7759;SDS011;3924;48.830;9.262;2023-06-04T12:19:57;2.30;;;1.67;;
7759;SDS011;3924;48.830;9.262;2023-06-04T12:22:27;1.37;;;1.20;;
7759;SDS011;3924;48.830;9.262;2023-06-04T12:24:54;1.50;;;1.40;;
7759;SDS011;3924;48.830;9.262;2023-06-04T12:27:23;1.53;;;1.43;;
7759;SDS011;3924;48.830;9.262;2023-06-04T12:32:36;2.87;;;1.50;;
7759;SDS011;3924;48.830;9.262;2023-06-04T12:35:02;1.37;;;1.13;;
7759;SDS011;3924;48.830;9.262;2023-06-04T12:37:30;4.50;;;2.20;;
7759;SDS011;3924;48.830;9.262;2023-06-04T12:39:56;1.60;;;1.50;;
7759;SDS011;3924;48.830;9.262;2023-06-04T12:42:23;2.83;;;1.17;;
7759;SDS011;3924;48.830;9.262;2023-06-04T12:44:53;2.17;;;1.57;;
7759;SDS011;3924;48.830;9.262;2023-06-04T12:47:20;3.20;;;1.80;;
7759;SDS011;3924;48.830;9.262;2023-06-04T12:49:47;2.30;;;1.70;;
7759;SDS011;3924;48.830;9.262;2023-06-04T12:52:16;1.93;;;1.73;;
7759;SDS011;3924;48.830;9.262;2023-06-04T12:54:43;4.57;;;1.73;;
7759;SDS011;3924;48.830;9.262;2023-06-04T12:57:09;1.77;;;1.57;;
7759;SDS011;3924;48.830;9.262;2023-06-04T12:59:36;4.80;;;1.77;;
7759;SDS011;3924;48.830;9.262;2023-06-04T13:02:03;6.53;;;1.83;;
7759;SDS011;3924;48.830;9.262;2023-06-04T13:04:29;4.80;;;1.67;;
7759;SDS011;3924;48.830;9.262;2023-06-04T13:06:56;1.97;;;1.00;;
7759;SDS011;3924;48.830;9.262;2023-06-04T13:09:25;1.47;;;1.30;;
7759;SDS011;3924;48.830;9.262;2023-06-04T13:11:55;3.73;;;1.93;;
7759;SDS011;3924;48.830;9.262;2023-06-04T13:14:21;1.57;;;1.47;;
7759;SDS011;3924;48.830;9.262;2023-06-04T13:16:48;1.43;;;1.20;;
7759;SDS011;3924;48.830;9.262;2023-06-04T13:19:15;1.80;;;1.23;;
7759;SDS011;3924;48.830;9.262;2023-06-04T13:21:43;1.00;;;1.00;;
7759;SDS011;3924;48.830;9.262;2023-06-04T13:24:10;4.97;;;1.27;;
7759;SDS011;3924;48.830;9.262;2023-06-04T13:26:37;1.20;;;1.07;;
7759;SDS011;3924;48.830;9.262;2023-06-04T13:29:05;2.83;;;1.20;;
7759;SDS011;3924;48.830;9.262;2023-06-04T13:31:32;1.10;;;1.03;;
7759;SDS011;3924;48.830;9.262;2023-06-04T13:33:58;12.23;;;1.60;;
7759;SDS011;3924;48.830;9.262;2023-06-04T13:36:31;0.80;;;0.80;;
7759;SDS011;3924;48.830;9.262;2023-06-04T13:38:58;5.80;;;1.53;;
7759;SDS011;3924;48.830;9.262;2023-06-04T13:41:25;1.13;;;1.07;;
7759;SDS011;3924;48.830;9.262;2023-06-04T13:43:52;1.70;;;1.50;;
7759;SDS011;3924;48.830;9.262;2023-06-04T13:46:19;2.73;;;1.37;;
7759;SDS011;3924;48.830;9.262;2023-06-04T13:48:46;2.00;;;1.03;;
7759;SDS011;3924;48.830;9.262;2023-06-04T13:51:13;1.33;;;1.30;;
7759;SDS011;3924;48.830;9.262;2023-06-04T13:53:39;1.93;;;1.37;;
7759;SDS011;3924;48.830;9.262;2023-06-04T13:56:06;1.77;;;1.40;;
7759;SDS011;3924;48.830;9.262;2023-06-04T13:58:34;1.40;;;1.17;;
7759;SDS011;3924;48.830;9.262;2023-06-04T14:01:01;1.37;;;1.20;;
7759;SDS011;3924;48.830;9.262;2023-06-04T14:03:27;1.87;;;1.20;;
7759;SDS011;3924;48.830;9.262;2023-06-04T14:05:54;1.87;;;1.40;;
7759;SDS011;3924;48.830;9.262;2023-06-04T14:08:21;1.23;;;1.20;;
7759;SDS011;3924;48.830;9.262;2023-06-04T14:10:48;2.03;;;1.40;;
7759;SDS011;3924;48.830;9.262;2023-06-04T14:13:18;3.20;;;1.27;;
7759;SDS011;3924;48.830;9.262;2023-06-04T14:15:44;1.40;;;1.30;;
7759;SDS011;3924;48.830;9.262;2023-06-04T14:18:13;0.93;;;0.93;;
7759;SDS011;3924;48.830;9.262;2023-06-04T14:20:39;2.00;;;1.20;;
7759;SDS011;3924;48.830;9.262;2023-06-04T14:23:08;1.03;;;1.00;;
7759;SDS011;3924;48.830;9.262;2023-06-04T14:25:35;2.37;;;1.30;;
7759;SDS011;3924;48.830;9.262;2023-06-04T14:28:03;1.40;;;1.30;;
7759;SDS011;3924;48.830;9.262;2023-06-04T14:30:30;1.33;;;1.13;;
7759;SDS011;3924;48.830;9.262;2023-06-04T14:32:56;1.00;;;1.00;;
7759;SDS011;3924;48.830;9.262;2023-06-04T14:35:23;1.00;;;1.00;;
7759;SDS011;3924;48.830;9.262;2023-06-04T14:37:49;1.40;;;1.30;;
7759;SDS011;3924;48.830;9.262;2023-06-04T14:40:16;3.73;;;1.93;;
7759;SDS011;3924;48.830;9.262;2023-06-04T14:42:42;1.60;;;1.50;;
7759;SDS011;3924;48.830;9.262;2023-06-04T14:45:09;1.07;;;0.97;;
7759;SDS011;3924;48.830;9.262;2023-06-04T14:47:36;2.90;;;1.47;;
7759;SDS011;3924;48.830;9.262;2023-06-04T14:50:04;1.00;;;1.00;;
7759;SDS011;3924;48.830;9.262;2023-06-04T14:52:32;3.33;;;1.40;;
7759;SDS011;3924;48.830;9.262;2023-06-04T14:54:58;1.63;;;1.13;;
7759;SDS011;3924;48.830;9.262;2023-06-04T14:57:25;1.40;;;1.30;;
7759;SDS011;3924;48.830;9.262;2023-06-04T14:59:52;2.90;;;1.43;;
7759;SDS011;3924;48.830;9.262;2023-06-04T15:02:18;1.73;;;1.30;;
7759;SDS011;3924;48.830;9.262;2023-06-04T15:04:46;0.90;;;0.90;;
7759;SDS011;3924;48.830;9.262;2023-06-04T15:07:13;2.27;;;1.37;;
7759;SDS011;3924;48.830;9.262;2023-06-04T15:09:40;3.53;;;1.20;;
7759;SDS011;3924;48.830;9.262;2023-06-04T15:12:07;1.47;;;1.37;;
7759;SDS011;3924;48.830;9.262;2023-06-04T15:14:33;2.37;;;1.93;;
7759;SDS011;3924;48.830;9.262;2023-06-04T15:17:00;2.00;;;1.57;;
7759;SDS011;3924;48.830;9.262;2023-06-04T15:19:32;1.60;;;1.50;;
7759;SDS011;3924;48.830;9.262;2023-06-04T15:21:59;1.60;;;1.50;;
7759;SDS011;3924;48.830;9.262;2023-06-04T15:24:27;1.53;;;1.33;;
7759;SDS011;3924;48.830;9.262;2023-06-04T15:26:53;2.43;;;1.17;;
7759;SDS011;3924;48.830;9.262;2023-06-04T15:29:21;1.33;;;1.27;;
7759;SDS011;3924;48.830;9.262;2023-06-04T15:31:48;1.30;;;1.20;;